sensor_id;sensor_type;location;lat;lon;timestamp;P1;durP1;ratioP1;P2;durP2;ratioP2
80270;SDS011;69573;45.560;10.200;2023-05-20T00:02:22;5.80;;;5.18;;
80270;SDS011;69573;45.560;10.200;2023-05-20T00:04:49;5.30;;;4.80;;
80270;SDS011;69573;45.560;10.200;2023-05-20T00:07:15;6.82;;;4.70;;
80270;SDS011;69573;45.560;10.200;2023-05-20T00:09:42;5.32;;;4.82;;
80270;SDS011;69573;45.560;10.200;2023-05-20T00:12:09;7.53;;;4.55;;
80270;SDS011;69573;45.560;10.200;2023-05-20T00:14:35;6.47;;;5.10;;
80270;SDS011;69573;45.560;10.200;2023-05-20T00:17:01;5.30;;;4.80;;
80270;SDS011;69573;45.560;10.200;2023-05-20T00:19:28;6.72;;;5.32;;
80270;SDS011;69573;45.560;10.200;2023-05-20T00:21:58;6.78;;;5.05;;
80270;SDS011;69573;45.560;10.200;2023-05-20T00:24:24;6.13;;;5.53;;
80270;SDS011;69573;45.560;10.200;2023-05-20T00:26:51;5.80;;;4.60;;
80270;SDS011;69573;45.560;10.200;2023-05-20T00:29:17;7.40;;;5.05;;
80270;SDS011;69573;45.560;10.200;2023-05-20T00:31:46;5.47;;;4.80;;
80270;SDS011;69573;45.560;10.200;2023-05-20T00:34:13;6.07;;;4.68;;
80270;SDS011;69573;45.560;10.200;2023-05-20T00:36:39;8.57;;;4.60;;
80270;SDS011;69573;45.560;10.200;2023-05-20T00:39:07;6.00;;;4.90;;
80270;SDS011;69573;45.560;10.200;2023-05-20T00:41:33;11.40;;;4.63;;
80270;SDS011;69573;45.560;10.200;2023-05-20T00:44:00;6.53;;;4.35;;
80270;SDS011;69573;45.560;10.200;2023-05-20T00:46:27;6.20;;;4.70;;
80270;SDS011;69573;45.560;10.200;2023-05-20T00:48:53;5.07;;;4.50;;
80270;SDS011;69573;45.560;10.200;2023-05-20T00:51:20;5.10;;;4.60;;
80270;SDS011;69573;45.560;10.200;2023-05-20T00:53:46;5.32;;;4.68;;
80270;SDS011;69573;45.560;10.200;2023-05-20T00:56:12;5.13;;;4.50;;
80270;SDS011;69573;45.560;10.200;2023-05-20T00:58:39;5.00;;;4.47;;
80270;SDS011;69573;45.560;10.200;2023-05-20T01:01:05;4.63;;;4.00;;
80270;SDS011;69573;45.560;10.200;2023-05-20T01:03:31;4.93;;;3.92;;
80270;SDS011;69573;45.560;10.200;2023-05-20T01:05:58;4.47;;;3.85;;
80270;SDS011;69573;45.560;10.200;2023-05-20T01:08:26;6.68;;;3.95;;
80270;SDS011;69573;45.560;10.200;2023-05-20T01:11:05;5.15;;;4.28;;
80270;SDS011;69573;45.560;10.200;2023-05-20T01:13:39;4.65;;;4.18;;
80270;SDS011;69573;45.560;10.200;2023-05-20T01:16:05;4.00;;;3.63;;
80270;SDS011;69573;45.560;10.200;2023-05-20T01:18:33;5.80;;;3.83;;
80270;SDS011;69573;45.560;10.200;2023-05-20T01:21:01;4.65;;;3.90;;
80270;SDS011;69573;45.560;10.200;2023-05-20T01:23:36;5.78;;;4.43;;
80270;SDS011;69573;45.560;10.200;2023-05-20T01:26:04;4.35;;;3.88;;
80270;SDS011;69573;45.560;10.200;2023-05-20T01:28:30;4.28;;;3.85;;
80270;SDS011;69573;45.560;10.200;2023-05-20T01:30:57;4.53;;;4.07;;
80270;SDS011;69573;45.560;10.200;2023-05-20T01:33:25;4.40;;;4.00;;
80270;SDS011;69573;45.560;10.200;2023-05-20T01:35:53;5.05;;;4.10;;
80270;SDS011;69573;45.560;10.200;2023-05-20T01:38:20;3.97;;;3.38;;
80270;SDS011;69573;45.560;10.200;2023-05-20T01:40:47;5.55;;;3.67;;
80270;SDS011;69573;45.560;10.200;2023-05-20T01:43:14;4.25;;;3.63;;
80270;SDS011;69573;45.560;10.200;2023-05-20T01:45:45;3.38;;;3.08;;
80270;SDS011;69573;45.560;10.200;2023-05-20T01:48:11;4.88;;;3.35;;
80270;SDS011;69573;45.560;10.200;2023-05-20T01:50:38;3.83;;;3.42;;
80270;SDS011;69573;45.560;10.200;2023-05-20T01:53:07;4.32;;;3.92;;
80270;SDS011;69573;45.560;10.200;2023-05-20T01:55:34;5.68;;;3.72;;
80270;SDS011;69573;45.560;10.200;2023-05-20T01:58:01;5.55;;;3.50;;
80270;SDS011;69573;45.560;10.200;2023-05-20T02:00:27;3.92;;;3.63;;
80270;SDS011;69573;45.560;10.200;2023-05-20T02:02:53;4.85;;;3.85;;
80270;SDS011;69573;45.560;10.200;2023-05-20T02:05:20;4.00;;;3.53;;
80270;SDS011;69573;45.560;10.200;2023-05-20T02:07:46;4.30;;;3.42;;
80270;SDS011;69573;45.560;10.200;2023-05-20T02:10:12;3.90;;;3.60;;
80270;SDS011;69573;45.560;10.200;2023-05-20T02:12:39;3.72;;;3.30;;
80270;SDS011;69573;45.560;10.200;2023-05-20T02:15:05;3.97;;;3.35;;
80270;SDS011;69573;45.560;10.200;2023-05-20T02:17:32;4.97;;;3.60;;
80270;SDS011;69573;45.560;10.200;2023-05-20T02:19:58;3.75;;;3.45;;
80270;SDS011;69573;45.560;10.200;2023-05-20T02:22:27;3.92;;;3.53;;
80270;SDS011;69573;45.560;10.200;2023-05-20T02:24:53;4.85;;;3.58;;
80270;SDS011;69573;45.560;10.200;2023-05-20T02:27:19;3.63;;;3.13;;
80270;SDS011;69573;45.560;10.200;2023-05-20T02:29:46;3.72;;;3.35;;
80270;SDS011;69573;45.560;10.200;2023-05-20T02:32:12;4.25;;;3.63;;
80270;SDS011;69573;45.560;10.200;2023-05-20T02:34:39;3.60;;;3.17;;
80270;SDS011;69573;45.560;10.200;2023-05-20T02:37:05;3.65;;;3.30;;
80270;SDS011;69573;45.560;10.200;2023-05-20T02:39:31;3.90;;;3.50;;
80270;SDS011;69573;45.560;10.200;2023-05-20T02:41:58;3.92;;;3.40;;
80270;SDS011;69573;45.560;10.200;2023-05-20T02:44:24;3.60;;;3.22;;
80270;SDS011;69573;45.560;10.200;2023-05-20T02:46:50;5.43;;;3.40;;
80270;SDS011;69573;45.560;10.200;2023-05-20T02:49:17;3.53;;;3.22;;
80270;SDS011;69573;45.560;10.200;2023-05-20T02:51:43;5.82;;;3.28;;
80270;SDS011;69573;45.560;10.200;2023-05-20T02:54:09;4.53;;;3.03;;
80270;SDS011;69573;45.560;10.200;2023-05-20T02:56:35;3.70;;;3.38;;
80270;SDS011;69573;45.560;10.200;2023-05-20T02:59:01;7.57;;;2.65;;
80270;SDS011;69573;45.560;10.200;2023-05-20T03:01:29;3.00;;;2.70;;
80270;SDS011;69573;45.560;10.200;2023-05-20T03:03:55;2.97;;;2.50;;
80270;SDS011;69573;45.560;10.200;2023-05-20T03:06:22;2.90;;;2.60;;
80270;SDS011;69573;45.560;10.200;2023-05-20T03:08:48;2.90;;;2.67;;
80270;SDS011;69573;45.560;10.200;2023-05-20T03:11:15;3.53;;;3.22;;
80270;SDS011;69573;45.560;10.200;2023-05-20T03:13:41;3.15;;;2.85;;
80270;SDS011;69573;45.560;10.200;2023-05-20T03:16:08;3.42;;;3.08;;
80270;SDS011;69573;45.560;10.200;2023-05-20T03:18:34;4.15;;;2.83;;
80270;SDS011;69573;45.560;10.200;2023-05-20T03:21:00;4.22;;;3.13;;
80270;SDS011;69573;45.560;10.200;2023-05-20T03:23:27;3.90;;;3.25;;
80270;SDS011;69573;45.560;10.200;2023-05-20T03:25:53;3.47;;;3.17;;
80270;SDS011;69573;45.560;10.200;2023-05-20T03:28:19;3.03;;;2.83;;
80270;SDS011;69573;45.560;10.200;2023-05-20T03:30:45;2.95;;;2.65;;
80270;SDS011;69573;45.560;10.200;2023-05-20T03:33:11;3.05;;;2.80;;
80270;SDS011;69573;45.560;10.200;2023-05-20T03:35:38;3.10;;;2.80;;
80270;SDS011;69573;45.560;10.200;2023-05-20T03:38:05;2.95;;;2.65;;
80270;SDS011;69573;45.560;10.200;2023-05-20T03:40:31;6.10;;;3.42;;
80270;SDS011;69573;45.560;10.200;2023-05-20T03:42:58;4.05;;;3.45;;
80270;SDS011;69573;45.560;10.200;2023-05-20T03:45:24;3.63;;;2.50;;
80270;SDS011;69573;45.560;10.200;2023-05-20T03:47:50;4.80;;;2.75;;
80270;SDS011;69573;45.560;10.200;2023-05-20T03:50:16;4.78;;;2.80;;
80270;SDS011;69573;45.560;10.200;2023-05-20T03:52:43;2.58;;;2.45;;
80270;SDS011;69573;45.560;10.200;2023-05-20T03:55:09;3.45;;;2.38;;
80270;SDS011;69573;45.560;10.200;2023-05-20T03:57:36;3.00;;;2.50;;
80270;SDS011;69573;45.560;10.200;2023-05-20T04:00:03;4.18;;;2.72;;
80270;SDS011;69573;45.560;10.200;2023-05-20T04:02:36;3.78;;;3.00;;
80270;SDS011;69573;45.560;10.200;2023-05-20T04:05:02;4.95;;;2.25;;
80270;SDS011;69573;45.560;10.200;2023-05-20T04:07:28;2.63;;;2.42;;
80270;SDS011;69573;45.560;10.200;2023-05-20T04:09:54;3.70;;;2.38;;
80270;SDS011;69573;45.560;10.200;2023-05-20T04:12:21;2.67;;;2.47;;
80270;SDS011;69573;45.560;10.200;2023-05-20T04:14:50;2.75;;;2.53;;
80270;SDS011;69573;45.560;10.200;2023-05-20T04:17:19;2.97;;;2.30;;
80270;SDS011;69573;45.560;10.200;2023-05-20T04:19:45;4.40;;;2.22;;
80270;SDS011;69573;45.560;10.200;2023-05-20T04:22:11;2.45;;;2.25;;
80270;SDS011;69573;45.560;10.200;2023-05-20T04:24:38;2.60;;;2.40;;
80270;SDS011;69573;45.560;10.200;2023-05-20T04:27:04;2.53;;;2.33;;
80270;SDS011;69573;45.560;10.200;2023-05-20T04:29:31;2.28;;;2.08;;
80270;SDS011;69573;45.560;10.200;2023-05-20T04:31:58;2.55;;;2.35;;
80270;SDS011;69573;45.560;10.200;2023-05-20T04:34:27;2.30;;;2.20;;
80270;SDS011;69573;45.560;10.200;2023-05-20T04:36:54;2.60;;;2.40;;
80270;SDS011;69573;45.560;10.200;2023-05-20T04:39:22;2.50;;;2.30;;
80270;SDS011;69573;45.560;10.200;2023-05-20T04:41:49;3.53;;;2.53;;
80270;SDS011;69573;45.560;10.200;2023-05-20T04:44:18;4.05;;;2.50;;
80270;SDS011;69573;45.560;10.200;2023-05-20T04:46:44;2.83;;;2.60;;
80270;SDS011;69573;45.560;10.200;2023-05-20T04:49:10;2.90;;;2.58;;
80270;SDS011;69573;45.560;10.200;2023-05-20T04:51:37;5.47;;;2.45;;
80270;SDS011;69573;45.560;10.200;2023-05-20T04:54:04;2.30;;;2.10;;
80270;SDS011;69573;45.560;10.200;2023-05-20T04:56:30;2.50;;;2.17;;
80270;SDS011;69573;45.560;10.200;2023-05-20T04:58:57;2.65;;;2.45;;
80270;SDS011;69573;45.560;10.200;2023-05-20T05:01:23;2.40;;;2.20;;
80270;SDS011;69573;45.560;10.200;2023-05-20T05:03:50;2.17;;;2.03;;
80270;SDS011;69573;45.560;10.200;2023-05-20T05:06:16;2.65;;;2.45;;
80270;SDS011;69573;45.560;10.200;2023-05-20T05:08:42;4.65;;;2.55;;
80270;SDS011;69573;45.560;10.200;2023-05-20T05:11:08;4.68;;;2.45;;
80270;SDS011;69573;45.560;10.200;2023-05-20T05:13:35;3.13;;;2.83;;
80270;SDS011;69573;45.560;10.200;2023-05-20T05:16:01;2.47;;;2.28;;
80270;SDS011;69573;45.560;10.200;2023-05-20T05:18:28;3.78;;;2.85;;
80270;SDS011;69573;45.560;10.200;2023-05-20T05:20:58;4.47;;;2.63;;
80270;SDS011;69573;45.560;10.200;2023-05-20T05:23:25;3.40;;;2.53;;
80270;SDS011;69573;45.560;10.200;2023-05-20T05:25:51;5.15;;;2.88;;
80270;SDS011;69573;45.560;10.200;2023-05-20T05:28:18;2.70;;;2.50;;
80270;SDS011;69573;45.560;10.200;2023-05-20T05:30:44;2.42;;;2.22;;
80270;SDS011;69573;45.560;10.200;2023-05-20T05:33:10;6.78;;;2.83;;
80270;SDS011;69573;45.560;10.200;2023-05-20T05:35:38;2.40;;;2.20;;
80270;SDS011;69573;45.560;10.200;2023-05-20T05:38:04;2.55;;;2.35;;
80270;SDS011;69573;45.560;10.200;2023-05-20T05:40:31;3.28;;;2.35;;
80270;SDS011;69573;45.560;10.200;2023-05-20T05:42:57;2.60;;;2.40;;
80270;SDS011;69573;45.560;10.200;2023-05-20T05:45:24;2.67;;;2.47;;
80270;SDS011;69573;45.560;10.200;2023-05-20T05:47:50;2.97;;;2.75;;
80270;SDS011;69573;45.560;10.200;2023-05-20T05:50:16;2.97;;;2.67;;
80270;SDS011;69573;45.560;10.200;2023-05-20T05:52:42;2.60;;;2.40;;
80270;SDS011;69573;45.560;10.200;2023-05-20T05:55:09;2.83;;;2.40;;
80270;SDS011;69573;45.560;10.200;2023-05-20T05:57:35;3.15;;;2.70;;
80270;SDS011;69573;45.560;10.200;2023-05-20T06:00:03;3.17;;;2.85;;
80270;SDS011;69573;45.560;10.200;2023-05-20T06:02:29;4.18;;;2.58;;
80270;SDS011;69573;45.560;10.200;2023-05-20T06:05:00;5.07;;;2.90;;
80270;SDS011;69573;45.560;10.200;2023-05-20T06:07:26;2.70;;;2.50;;
80270;SDS011;69573;45.560;10.200;2023-05-20T06:09:53;5.15;;;2.63;;
80270;SDS011;69573;45.560;10.200;2023-05-20T06:12:19;2.63;;;2.42;;
80270;SDS011;69573;45.560;10.200;2023-05-20T06:14:46;3.80;;;2.20;;
80270;SDS011;69573;45.560;10.200;2023-05-20T06:17:12;2.50;;;2.30;;
80270;SDS011;69573;45.560;10.200;2023-05-20T06:19:39;2.90;;;2.22;;
80270;SDS011;69573;45.560;10.200;2023-05-20T06:22:05;2.85;;;2.55;;
80270;SDS011;69573;45.560;10.200;2023-05-20T06:24:32;2.78;;;2.40;;
80270;SDS011;69573;45.560;10.200;2023-05-20T06:26:59;6.88;;;2.78;;
80270;SDS011;69573;45.560;10.200;2023-05-20T06:29:25;3.80;;;2.55;;
80270;SDS011;69573;45.560;10.200;2023-05-20T06:31:52;4.40;;;2.40;;
80270;SDS011;69573;45.560;10.200;2023-05-20T06:34:19;2.60;;;2.40;;
80270;SDS011;69573;45.560;10.200;2023-05-20T06:36:45;2.50;;;2.30;;
80270;SDS011;69573;45.560;10.200;2023-05-20T06:39:12;3.75;;;2.47;;
80270;SDS011;69573;45.560;10.200;2023-05-20T06:41:38;3.10;;;2.80;;
80270;SDS011;69573;45.560;10.200;2023-05-20T06:44:05;3.85;;;2.75;;
80270;SDS011;69573;45.560;10.200;2023-05-20T06:46:31;3.28;;;2.50;;
80270;SDS011;69573;45.560;10.200;2023-05-20T06:48:57;4.53;;;2.60;;
80270;SDS011;69573;45.560;10.200;2023-05-20T06:51:24;3.33;;;2.47;;
80270;SDS011;69573;45.560;10.200;2023-05-20T06:53:51;4.60;;;3.10;;
80270;SDS011;69573;45.560;10.200;2023-05-20T06:56:17;3.30;;;3.00;;
80270;SDS011;69573;45.560;10.200;2023-05-20T06:58:43;3.90;;;2.58;;
80270;SDS011;69573;45.560;10.200;2023-05-20T07:01:10;3.08;;;2.83;;
80270;SDS011;69573;45.560;10.200;2023-05-20T07:03:36;3.25;;;2.95;;
80270;SDS011;69573;45.560;10.200;2023-05-20T07:06:02;4.43;;;2.85;;
80270;SDS011;69573;45.560;10.200;2023-05-20T07:08:29;3.67;;;2.78;;
80270;SDS011;69573;45.560;10.200;2023-05-20T07:10:55;3.10;;;2.35;;
80270;SDS011;69573;45.560;10.200;2023-05-20T07:13:22;2.90;;;2.40;;
80270;SDS011;69573;45.560;10.200;2023-05-20T07:15:48;3.55;;;2.45;;
80270;SDS011;69573;45.560;10.200;2023-05-20T07:18:14;3.80;;;2.58;;
80270;SDS011;69573;45.560;10.200;2023-05-20T07:20:42;4.43;;;2.45;;
80270;SDS011;69573;45.560;10.200;2023-05-20T07:23:09;3.63;;;2.85;;
80270;SDS011;69573;45.560;10.200;2023-05-20T07:25:35;6.70;;;2.88;;
80270;SDS011;69573;45.560;10.200;2023-05-20T07:28:05;3.05;;;2.78;;
80270;SDS011;69573;45.560;10.200;2023-05-20T07:30:31;3.63;;;2.58;;
80270;SDS011;69573;45.560;10.200;2023-05-20T07:32:57;5.78;;;3.33;;
80270;SDS011;69573;45.560;10.200;2023-05-20T07:35:23;5.50;;;3.05;;
80270;SDS011;69573;45.560;10.200;2023-05-20T07:37:50;3.00;;;2.70;;
80270;SDS011;69573;45.560;10.200;2023-05-20T07:40:16;3.40;;;2.58;;
80270;SDS011;69573;45.560;10.200;2023-05-20T07:42:42;3.47;;;2.75;;
80270;SDS011;69573;45.560;10.200;2023-05-20T07:45:09;4.07;;;2.95;;
80270;SDS011;69573;45.560;10.200;2023-05-20T07:47:38;3.10;;;2.80;;
80270;SDS011;69573;45.560;10.200;2023-05-20T07:50:04;3.85;;;2.60;;
80270;SDS011;69573;45.560;10.200;2023-05-20T07:52:32;3.55;;;2.70;;
80270;SDS011;69573;45.560;10.200;2023-05-20T07:54:59;8.70;;;3.15;;
80270;SDS011;69573;45.560;10.200;2023-05-20T07:57:25;3.08;;;2.78;;
80270;SDS011;69573;45.560;10.200;2023-05-20T07:59:52;3.42;;;3.05;;
80270;SDS011;69573;45.560;10.200;2023-05-20T08:02:19;4.32;;;3.00;;
80270;SDS011;69573;45.560;10.200;2023-05-20T08:04:45;2.60;;;2.40;;
80270;SDS011;69573;45.560;10.200;2023-05-20T08:07:11;6.25;;;3.00;;
80270;SDS011;69573;45.560;10.200;2023-05-20T08:09:38;4.13;;;2.60;;
80270;SDS011;69573;45.560;10.200;2023-05-20T08:12:04;4.43;;;2.75;;
80270;SDS011;69573;45.560;10.200;2023-05-20T08:14:31;2.58;;;2.38;;
80270;SDS011;69573;45.560;10.200;2023-05-20T08:16:58;2.92;;;2.55;;
80270;SDS011;69573;45.560;10.200;2023-05-20T08:19:24;3.65;;;2.70;;
80270;SDS011;69573;45.560;10.200;2023-05-20T08:21:51;3.70;;;2.90;;
80270;SDS011;69573;45.560;10.200;2023-05-20T08:24:18;3.10;;;2.80;;
80270;SDS011;69573;45.560;10.200;2023-05-20T08:26:47;3.72;;;3.28;;
80270;SDS011;69573;45.560;10.200;2023-05-20T08:29:31;4.35;;;3.72;;
80270;SDS011;69573;45.560;10.200;2023-05-20T08:31:57;3.75;;;3.03;;
80270;SDS011;69573;45.560;10.200;2023-05-20T08:34:24;3.30;;;2.75;;
80270;SDS011;69573;45.560;10.200;2023-05-20T08:36:50;3.30;;;3.00;;
80270;SDS011;69573;45.560;10.200;2023-05-20T08:39:17;4.18;;;2.67;;
80270;SDS011;69573;45.560;10.200;2023-05-20T08:41:43;4.50;;;2.97;;
80270;SDS011;69573;45.560;10.200;2023-05-20T08:44:12;6.30;;;3.15;;
80270;SDS011;69573;45.560;10.200;2023-05-20T08:46:38;4.05;;;3.22;;
80270;SDS011;69573;45.560;10.200;2023-05-20T08:49:05;3.63;;;3.40;;
80270;SDS011;69573;45.560;10.200;2023-05-20T08:51:32;4.00;;;3.10;;
80270;SDS011;69573;45.560;10.200;2023-05-20T08:54:01;3.70;;;2.93;;
80270;SDS011;69573;45.560;10.200;2023-05-20T08:56:27;3.80;;;3.50;;
80270;SDS011;69573;45.560;10.200;2023-05-20T08:58:54;3.60;;;3.05;;
80270;SDS011;69573;45.560;10.200;2023-05-20T09:01:23;5.40;;;3.42;;
80270;SDS011;69573;45.560;10.200;2023-05-20T09:03:52;4.57;;;3.15;;
80270;SDS011;69573;45.560;10.200;2023-05-20T09:06:19;3.33;;;2.92;;
80270;SDS011;69573;45.560;10.200;2023-05-20T09:08:47;4.65;;;3.35;;
80270;SDS011;69573;45.560;10.200;2023-05-20T09:11:15;3.88;;;3.10;;
80270;SDS011;69573;45.560;10.200;2023-05-20T09:13:42;3.40;;;3.10;;
80270;SDS011;69573;45.560;10.200;2023-05-20T09:16:09;3.40;;;3.10;;
80270;SDS011;69573;45.560;10.200;2023-05-20T09:18:38;5.22;;;3.33;;
80270;SDS011;69573;45.560;10.200;2023-05-20T09:21:10;2.70;;;2.35;;
80270;SDS011;69573;45.560;10.200;2023-05-20T09:23:36;5.63;;;3.22;;
80270;SDS011;69573;45.560;10.200;2023-05-20T09:26:03;3.58;;;3.17;;
80270;SDS011;69573;45.560;10.200;2023-05-20T09:28:29;3.25;;;2.95;;
80270;SDS011;69573;45.560;10.200;2023-05-20T09:30:58;2.65;;;2.45;;
80270;SDS011;69573;45.560;10.200;2023-05-20T09:33:28;3.35;;;3.03;;
80270;SDS011;69573;45.560;10.200;2023-05-20T09:36:04;4.43;;;2.85;;
80270;SDS011;69573;45.560;10.200;2023-05-20T09:38:36;3.80;;;2.95;;
80270;SDS011;69573;45.560;10.200;2023-05-20T09:41:10;4.70;;;3.00;;
80270;SDS011;69573;45.560;10.200;2023-05-20T09:43:37;2.85;;;2.65;;
80270;SDS011;69573;45.560;10.200;2023-05-20T09:46:13;3.60;;;2.47;;
80270;SDS011;69573;45.560;10.200;2023-05-20T09:48:40;3.35;;;3.00;;
80270;SDS011;69573;45.560;10.200;2023-05-20T09:51:07;2.75;;;2.55;;
80270;SDS011;69573;45.560;10.200;2023-05-20T09:53:33;2.85;;;2.65;;
80270;SDS011;69573;45.560;10.200;2023-05-20T09:56:01;3.97;;;2.67;;
80270;SDS011;69573;45.560;10.200;2023-05-20T09:58:27;2.75;;;2.55;;
80270;SDS011;69573;45.560;10.200;2023-05-20T10:00:54;3.13;;;2.65;;
80270;SDS011;69573;45.560;10.200;2023-05-20T10:03:21;4.53;;;2.75;;
80270;SDS011;69573;45.560;10.200;2023-05-20T10:10:49;2.70;;;2.17;;
80270;SDS011;69573;45.560;10.200;2023-05-20T10:21:17;3.20;;;2.83;;
80270;SDS011;69573;45.560;10.200;2023-05-20T10:23:46;4.15;;;2.53;;
80270;SDS011;69573;45.560;10.200;2023-05-20T10:26:13;2.20;;;1.98;;
80270;SDS011;69573;45.560;10.200;2023-05-20T10:28:39;3.22;;;2.50;;
80270;SDS011;69573;45.560;10.200;2023-05-20T10:31:21;3.35;;;2.40;;
80270;SDS011;69573;45.560;10.200;2023-05-20T10:33:48;2.90;;;2.60;;
80270;SDS011;69573;45.560;10.200;2023-05-20T10:36:27;3.28;;;2.97;;
80270;SDS011;69573;45.560;10.200;2023-05-20T10:38:56;2.63;;;2.38;;
80270;SDS011;69573;45.560;10.200;2023-05-20T10:41:26;3.08;;;2.78;;
80270;SDS011;69573;45.560;10.200;2023-05-20T10:46:25;3.75;;;3.45;;
80270;SDS011;69573;45.560;10.200;2023-05-20T10:48:52;5.60;;;3.65;;
80270;SDS011;69573;45.560;10.200;2023-05-20T10:51:18;4.35;;;3.90;;
80270;SDS011;69573;45.560;10.200;2023-05-20T10:53:45;6.43;;;3.97;;
80270;SDS011;69573;45.560;10.200;2023-05-20T10:56:18;4.40;;;4.03;;
80270;SDS011;69573;45.560;10.200;2023-05-20T10:58:46;4.47;;;3.97;;
80270;SDS011;69573;45.560;10.200;2023-05-20T11:01:13;5.97;;;4.15;;
80270;SDS011;69573;45.560;10.200;2023-05-20T11:03:40;4.88;;;3.72;;
80270;SDS011;69573;45.560;10.200;2023-05-20T11:06:10;3.40;;;3.10;;
80270;SDS011;69573;45.560;10.200;2023-05-20T11:08:36;3.17;;;2.95;;
80270;SDS011;69573;45.560;10.200;2023-05-20T11:11:03;5.13;;;4.63;;
80270;SDS011;69573;45.560;10.200;2023-05-20T11:13:29;3.53;;;3.00;;
80270;SDS011;69573;45.560;10.200;2023-05-20T11:15:56;3.17;;;2.95;;
80270;SDS011;69573;45.560;10.200;2023-05-20T11:18:25;3.53;;;2.75;;
80270;SDS011;69573;45.560;10.200;2023-05-20T11:20:58;3.65;;;2.65;;
80270;SDS011;69573;45.560;10.200;2023-05-20T11:23:25;3.72;;;2.97;;
80270;SDS011;69573;45.560;10.200;2023-05-20T11:25:52;3.03;;;2.83;;
80270;SDS011;69573;45.560;10.200;2023-05-20T11:28:18;3.28;;;2.95;;
80270;SDS011;69573;45.560;10.200;2023-05-20T11:33:14;4.47;;;3.40;;
80270;SDS011;69573;45.560;10.200;2023-05-20T11:35:44;5.25;;;4.15;;
80270;SDS011;69573;45.560;10.200;2023-05-20T11:38:14;4.50;;;3.45;;
80270;SDS011;69573;45.560;10.200;2023-05-20T11:43:06;4.68;;;3.30;;
80270;SDS011;69573;45.560;10.200;2023-05-20T11:50:36;3.22;;;2.60;;
80270;SDS011;69573;45.560;10.200;2023-05-20T11:53:08;2.60;;;2.40;;
80270;SDS011;69573;45.560;10.200;2023-05-20T11:58:11;3.20;;;2.95;;
80270;SDS011;69573;45.560;10.200;2023-05-20T12:00:40;7.80;;;2.80;;
80270;SDS011;69573;45.560;10.200;2023-05-20T12:03:06;3.00;;;2.70;;
80270;SDS011;69573;45.560;10.200;2023-05-20T12:05:33;3.20;;;2.83;;
80270;SDS011;69573;45.560;10.200;2023-05-20T12:07:59;2.83;;;2.58;;
80270;SDS011;69573;45.560;10.200;2023-05-20T12:10:26;2.90;;;2.60;;
80270;SDS011;69573;45.560;10.200;2023-05-20T12:12:52;2.95;;;2.65;;
80270;SDS011;69573;45.560;10.200;2023-05-20T12:15:18;3.10;;;2.78;;
80270;SDS011;69573;45.560;10.200;2023-05-20T12:17:47;3.20;;;2.90;;
80270;SDS011;69573;45.560;10.200;2023-05-20T12:20:16;2.83;;;2.40;;
80270;SDS011;69573;45.560;10.200;2023-05-20T12:22:43;2.60;;;2.40;;
80270;SDS011;69573;45.560;10.200;2023-05-20T12:25:10;2.45;;;2.17;;
80270;SDS011;69573;45.560;10.200;2023-05-20T12:27:36;2.35;;;2.20;;
80270;SDS011;69573;45.560;10.200;2023-05-20T12:30:03;2.67;;;2.47;;
80270;SDS011;69573;45.560;10.200;2023-05-20T12:32:36;3.42;;;2.72;;
80270;SDS011;69573;45.560;10.200;2023-05-20T12:35:03;4.53;;;2.28;;
80270;SDS011;69573;45.560;10.200;2023-05-20T12:37:29;2.70;;;2.50;;
80270;SDS011;69573;45.560;10.200;2023-05-20T12:39:56;3.30;;;2.63;;
80270;SDS011;69573;45.560;10.200;2023-05-20T12:42:22;3.10;;;2.80;;
80270;SDS011;69573;45.560;10.200;2023-05-20T12:44:49;2.83;;;2.47;;
80270;SDS011;69573;45.560;10.200;2023-05-20T12:47:15;4.32;;;2.80;;
80270;SDS011;69573;45.560;10.200;2023-05-20T12:49:42;3.75;;;3.28;;
80270;SDS011;69573;45.560;10.200;2023-05-20T12:52:08;2.70;;;2.50;;
80270;SDS011;69573;45.560;10.200;2023-05-20T12:54:35;2.88;;;2.67;;
80270;SDS011;69573;45.560;10.200;2023-05-20T12:57:02;3.38;;;2.90;;
80270;SDS011;69573;45.560;10.200;2023-05-20T12:59:29;3.97;;;3.22;;
80270;SDS011;69573;45.560;10.200;2023-05-20T13:01:55;4.03;;;3.47;;
80270;SDS011;69573;45.560;10.200;2023-05-20T13:04:21;3.60;;;3.22;;
80270;SDS011;69573;45.560;10.200;2023-05-20T13:06:48;3.97;;;3.05;;
80270;SDS011;69573;45.560;10.200;2023-05-20T13:09:14;4.03;;;3.00;;
80270;SDS011;69573;45.560;10.200;2023-05-20T13:11:41;3.83;;;3.53;;
80270;SDS011;69573;45.560;10.200;2023-05-20T13:14:07;5.15;;;3.55;;
80270;SDS011;69573;45.560;10.200;2023-05-20T13:16:34;4.10;;;3.80;;
80270;SDS011;69573;45.560;10.200;2023-05-20T13:19:01;4.78;;;4.30;;
80270;SDS011;69573;45.560;10.200;2023-05-20T13:21:27;4.55;;;3.92;;
80270;SDS011;69573;45.560;10.200;2023-05-20T13:23:55;5.43;;;3.85;;
80270;SDS011;69573;45.560;10.200;2023-05-20T13:26:22;4.00;;;3.70;;
80270;SDS011;69573;45.560;10.200;2023-05-20T13:28:49;4.82;;;4.40;;
80270;SDS011;69573;45.560;10.200;2023-05-20T13:31:15;5.10;;;4.60;;
80270;SDS011;69573;45.560;10.200;2023-05-20T13:33:41;4.78;;;4.38;;
80270;SDS011;69573;45.560;10.200;2023-05-20T13:36:08;4.80;;;4.13;;
80270;SDS011;69573;45.560;10.200;2023-05-20T13:38:34;4.07;;;3.67;;
80270;SDS011;69573;45.560;10.200;2023-05-20T13:41:01;4.95;;;4.13;;
80270;SDS011;69573;45.560;10.200;2023-05-20T13:43:34;4.40;;;4.00;;
80270;SDS011;69573;45.560;10.200;2023-05-20T13:46:00;5.25;;;4.25;;
80270;SDS011;69573;45.560;10.200;2023-05-20T13:48:26;4.57;;;4.15;;
80270;SDS011;69573;45.560;10.200;2023-05-20T13:50:53;4.35;;;3.95;;
80270;SDS011;69573;45.560;10.200;2023-05-20T13:53:20;4.63;;;4.20;;
80270;SDS011;69573;45.560;10.200;2023-05-20T13:55:46;4.32;;;3.92;;
80270;SDS011;69573;45.560;10.200;2023-05-20T13:58:13;5.65;;;5.15;;
80270;SDS011;69573;45.560;10.200;2023-05-20T14:00:40;5.78;;;4.13;;
80270;SDS011;69573;45.560;10.200;2023-05-20T14:03:09;5.00;;;4.47;;
80270;SDS011;69573;45.560;10.200;2023-05-20T14:05:35;4.22;;;3.90;;
80270;SDS011;69573;45.560;10.200;2023-05-20T14:08:01;4.20;;;3.63;;
80270;SDS011;69573;45.560;10.200;2023-05-20T14:10:28;5.03;;;3.58;;
80270;SDS011;69573;45.560;10.200;2023-05-20T14:12:56;5.13;;;3.92;;
80270;SDS011;69573;45.560;10.200;2023-05-20T14:15:22;4.30;;;3.80;;
80270;SDS011;69573;45.560;10.200;2023-05-20T14:17:49;4.97;;;3.85;;
80270;SDS011;69573;45.560;10.200;2023-05-20T14:20:15;4.32;;;3.60;;
80270;SDS011;69573;45.560;10.200;2023-05-20T14:22:42;4.93;;;3.60;;
80270;SDS011;69573;45.560;10.200;2023-05-20T14:25:09;4.10;;;3.15;;
80270;SDS011;69573;45.560;10.200;2023-05-20T14:27:35;4.30;;;3.70;;
80270;SDS011;69573;45.560;10.200;2023-05-20T14:30:02;4.32;;;3.92;;
80270;SDS011;69573;45.560;10.200;2023-05-20T14:32:28;4.32;;;3.92;;
80270;SDS011;69573;45.560;10.200;2023-05-20T14:34:54;5.38;;;4.00;;
80270;SDS011;69573;45.560;10.200;2023-05-20T14:37:21;4.05;;;3.45;;
80270;SDS011;69573;45.560;10.200;2023-05-20T14:39:47;5.60;;;4.22;;
80270;SDS011;69573;45.560;10.200;2023-05-20T14:42:17;4.45;;;3.45;;
80270;SDS011;69573;45.560;10.200;2023-05-20T14:44:43;4.13;;;3.80;;
80270;SDS011;69573;45.560;10.200;2023-05-20T14:47:09;4.60;;;4.20;;
80270;SDS011;69573;45.560;10.200;2023-05-20T14:49:35;4.38;;;3.97;;
80270;SDS011;69573;45.560;10.200;2023-05-20T14:52:03;4.97;;;4.10;;
80270;SDS011;69573;45.560;10.200;2023-05-20T14:54:31;5.28;;;4.35;;
80270;SDS011;69573;45.560;10.200;2023-05-20T14:56:58;5.82;;;5.00;;
80270;SDS011;69573;45.560;10.200;2023-05-20T14:59:27;4.57;;;4.18;;
80270;SDS011;69573;45.560;10.200;2023-05-20T15:01:54;4.60;;;4.20;;